sensor_id;sensor_type;location;lat;lon;timestamp;P1;durP1;ratioP1;P2;durP2;ratioP2
34988;SDS011;21192;40.182;44.516;2023-02-27T00:01:25;45.05;;;30.90;;
34988;SDS011;21192;40.182;44.516;2023-02-27T00:03:51;42.25;;;30.02;;
34988;SDS011;21192;40.182;44.516;2023-02-27T00:06:16;46.70;;;29.98;;
34988;SDS011;21192;40.182;44.516;2023-02-27T00:08:43;47.20;;;29.85;;
34988;SDS011;21192;40.182;44.516;2023-02-27T00:11:08;42.78;;;28.73;;
34988;SDS011;21192;40.182;44.516;2023-02-27T00:13:34;42.42;;;27.63;;
34988;SDS011;21192;40.182;44.516;2023-02-27T00:16:01;41.17;;;27.98;;
34988;SDS011;21192;40.182;44.516;2023-02-27T00:18:26;45.47;;;29.90;;
34988;SDS011;21192;40.182;44.516;2023-02-27T00:20:52;39.78;;;29.00;;
34988;SDS011;21192;40.182;44.516;2023-02-27T00:23:18;44.97;;;29.80;;
34988;SDS011;21192;40.182;44.516;2023-02-27T00:25:44;40.80;;;27.65;;
34988;SDS011;21192;40.182;44.516;2023-02-27T00:28:10;41.63;;;29.17;;
34988;SDS011;21192;40.182;44.516;2023-02-27T00:30:36;47.05;;;30.20;;
34988;SDS011;21192;40.182;44.516;2023-02-27T00:33:02;43.22;;;29.23;;
34988;SDS011;21192;40.182;44.516;2023-02-27T00:35:28;44.05;;;29.40;;
34988;SDS011;21192;40.182;44.516;2023-02-27T00:37:54;46.70;;;28.20;;
34988;SDS011;21192;40.182;44.516;2023-02-27T00:40:20;44.72;;;29.38;;
34988;SDS011;21192;40.182;44.516;2023-02-27T00:42:49;43.47;;;29.40;;
34988;SDS011;21192;40.182;44.516;2023-02-27T00:45:15;48.45;;;29.55;;
34988;SDS011;21192;40.182;44.516;2023-02-27T00:47:42;45.83;;;28.92;;
34988;SDS011;21192;40.182;44.516;2023-02-27T00:50:08;46.45;;;30.75;;
34988;SDS011;21192;40.182;44.516;2023-02-27T00:52:34;43.90;;;28.88;;
34988;SDS011;21192;40.182;44.516;2023-02-27T00:55:00;44.75;;;29.05;;
34988;SDS011;21192;40.182;44.516;2023-02-27T00:57:26;41.78;;;28.65;;
34988;SDS011;21192;40.182;44.516;2023-02-27T00:59:52;44.17;;;29.23;;
34988;SDS011;21192;40.182;44.516;2023-02-27T01:02:18;46.33;;;27.92;;
34988;SDS011;21192;40.182;44.516;2023-02-27T01:04:44;42.63;;;28.10;;
34988;SDS011;21192;40.182;44.516;2023-02-27T01:07:10;41.40;;;29.75;;
34988;SDS011;21192;40.182;44.516;2023-02-27T01:09:35;43.80;;;28.33;;
34988;SDS011;21192;40.182;44.516;2023-02-27T01:12:01;43.63;;;28.42;;
34988;SDS011;21192;40.182;44.516;2023-02-27T01:14:27;40.58;;;27.88;;
34988;SDS011;21192;40.182;44.516;2023-02-27T01:16:53;46.03;;;29.35;;
34988;SDS011;21192;40.182;44.516;2023-02-27T01:19:19;42.10;;;27.77;;
34988;SDS011;21192;40.182;44.516;2023-02-27T01:21:45;41.80;;;29.98;;
34988;SDS011;21192;40.182;44.516;2023-02-27T01:24:11;45.55;;;29.25;;
34988;SDS011;21192;40.182;44.516;2023-02-27T01:26:37;47.47;;;30.33;;
34988;SDS011;21192;40.182;44.516;2023-02-27T01:29:03;45.65;;;29.38;;
34988;SDS011;21192;40.182;44.516;2023-02-27T01:31:29;47.30;;;30.88;;
34988;SDS011;21192;40.182;44.516;2023-02-27T01:33:55;45.47;;;30.70;;
34988;SDS011;21192;40.182;44.516;2023-02-27T01:36:21;49.83;;;30.70;;
34988;SDS011;21192;40.182;44.516;2023-02-27T01:38:47;45.13;;;30.00;;
34988;SDS011;21192;40.182;44.516;2023-02-27T01:41:12;43.80;;;29.63;;
34988;SDS011;21192;40.182;44.516;2023-02-27T01:46:24;50.97;;;34.63;;
34988;SDS011;21192;40.182;44.516;2023-02-27T01:48:55;53.38;;;34.45;;
34988;SDS011;21192;40.182;44.516;2023-02-27T01:51:29;58.00;;;36.67;;
34988;SDS011;21192;40.182;44.516;2023-02-27T01:53:58;55.58;;;37.03;;
34988;SDS011;21192;40.182;44.516;2023-02-27T01:56:28;58.60;;;38.20;;
34988;SDS011;21192;40.182;44.516;2023-02-27T01:59:00;62.08;;;38.42;;
34988;SDS011;21192;40.182;44.516;2023-02-27T02:01:30;54.53;;;37.78;;
34988;SDS011;21192;40.182;44.516;2023-02-27T02:06:35;57.90;;;34.95;;
34988;SDS011;21192;40.182;44.516;2023-02-27T02:09:04;50.33;;;34.33;;
34988;SDS011;21192;40.182;44.516;2023-02-27T02:11:30;56.53;;;31.52;;
34988;SDS011;21192;40.182;44.516;2023-02-27T02:13:56;45.03;;;30.13;;
34988;SDS011;21192;40.182;44.516;2023-02-27T02:16:28;43.75;;;28.73;;
34988;SDS011;21192;40.182;44.516;2023-02-27T02:22:17;43.72;;;30.60;;
34988;SDS011;21192;40.182;44.516;2023-02-27T02:30:58;46.70;;;31.23;;
34988;SDS011;21192;40.182;44.516;2023-02-27T02:42:35;43.75;;;28.65;;
34988;SDS011;21192;40.182;44.516;2023-02-27T02:45:16;43.78;;;28.17;;
34988;SDS011;21192;40.182;44.516;2023-02-27T02:56:26;41.13;;;27.85;;
34988;SDS011;21192;40.182;44.516;2023-02-27T02:59:37;51.10;;;30.33;;
34988;SDS011;21192;40.182;44.516;2023-02-27T03:01:58;45.97;;;30.88;;
34988;SDS011;21192;40.182;44.516;2023-02-27T03:04:32;49.90;;;30.88;;
34988;SDS011;21192;40.182;44.516;2023-02-27T03:07:08;51.70;;;31.85;;
34988;SDS011;21192;40.182;44.516;2023-02-27T03:09:37;47.58;;;30.50;;
34988;SDS011;21192;40.182;44.516;2023-02-27T03:12:08;48.45;;;31.42;;
34988;SDS011;21192;40.182;44.516;2023-02-27T03:15:00;48.67;;;31.52;;
34988;SDS011;21192;40.182;44.516;2023-02-27T03:17:40;49.88;;;30.45;;
34988;SDS011;21192;40.182;44.516;2023-02-27T03:20:46;45.63;;;29.83;;
34988;SDS011;21192;40.182;44.516;2023-02-27T03:23:29;45.22;;;31.15;;
34988;SDS011;21192;40.182;44.516;2023-02-27T03:26:00;45.72;;;30.95;;
34988;SDS011;21192;40.182;44.516;2023-02-27T03:28:28;44.28;;;30.58;;
34988;SDS011;21192;40.182;44.516;2023-02-27T03:30:58;50.25;;;30.75;;
34988;SDS011;21192;40.182;44.516;2023-02-27T03:33:41;41.40;;;30.80;;
34988;SDS011;21192;40.182;44.516;2023-02-27T03:36:37;49.60;;;30.10;;
34988;SDS011;21192;40.182;44.516;2023-02-27T03:44:49;51.45;;;30.42;;
34988;SDS011;21192;40.182;44.516;2023-02-27T03:47:20;54.58;;;32.45;;
34988;SDS011;21192;40.182;44.516;2023-02-27T03:49:46;47.13;;;29.65;;
34988;SDS011;21192;40.182;44.516;2023-02-27T03:52:15;53.75;;;31.83;;
34988;SDS011;21192;40.182;44.516;2023-02-27T03:54:50;51.70;;;29.58;;
34988;SDS011;21192;40.182;44.516;2023-02-27T03:57:20;50.47;;;30.20;;
34988;SDS011;21192;40.182;44.516;2023-02-27T03:59:46;50.45;;;30.52;;
34988;SDS011;21192;40.182;44.516;2023-02-27T04:02:12;45.45;;;29.92;;
34988;SDS011;21192;40.182;44.516;2023-02-27T04:04:39;52.00;;;32.22;;
34988;SDS011;21192;40.182;44.516;2023-02-27T04:07:08;51.38;;;31.42;;
34988;SDS011;21192;40.182;44.516;2023-02-27T04:13:05;49.78;;;30.42;;
34988;SDS011;21192;40.182;44.516;2023-02-27T04:18:34;53.83;;;30.58;;
34988;SDS011;21192;40.182;44.516;2023-02-27T04:21:41;50.30;;;31.02;;
34988;SDS011;21192;40.182;44.516;2023-02-27T04:24:35;57.88;;;31.65;;
34988;SDS011;21192;40.182;44.516;2023-02-27T04:27:05;53.17;;;32.33;;
34988;SDS011;21192;40.182;44.516;2023-02-27T04:32:15;53.53;;;32.90;;
34988;SDS011;21192;40.182;44.516;2023-02-27T04:34:53;57.78;;;33.97;;
34988;SDS011;21192;40.182;44.516;2023-02-27T04:37:35;56.58;;;33.03;;
34988;SDS011;21192;40.182;44.516;2023-02-27T04:40:11;60.75;;;34.55;;
34988;SDS011;21192;40.182;44.516;2023-02-27T04:42:47;55.42;;;31.90;;
34988;SDS011;21192;40.182;44.516;2023-02-27T04:45:19;56.15;;;33.28;;
34988;SDS011;21192;40.182;44.516;2023-02-27T04:47:50;62.15;;;34.88;;
34988;SDS011;21192;40.182;44.516;2023-02-27T04:50:27;61.22;;;33.17;;
34988;SDS011;21192;40.182;44.516;2023-02-27T04:53:46;68.05;;;34.17;;
34988;SDS011;21192;40.182;44.516;2023-02-27T04:55:51;56.28;;;34.70;;
34988;SDS011;21192;40.182;44.516;2023-02-27T04:58:21;57.83;;;33.88;;
34988;SDS011;21192;40.182;44.516;2023-02-27T05:00:58;63.97;;;35.40;;
34988;SDS011;21192;40.182;44.516;2023-02-27T05:03:33;63.83;;;33.88;;
34988;SDS011;21192;40.182;44.516;2023-02-27T05:06:02;62.97;;;35.72;;
34988;SDS011;21192;40.182;44.516;2023-02-27T05:08:32;74.22;;;35.92;;
34988;SDS011;21192;40.182;44.516;2023-02-27T05:11:01;57.38;;;33.97;;
34988;SDS011;21192;40.182;44.516;2023-02-27T05:16:03;63.47;;;35.03;;
34988;SDS011;21192;40.182;44.516;2023-02-27T05:18:40;70.68;;;38.47;;
34988;SDS011;21192;40.182;44.516;2023-02-27T05:21:20;67.20;;;36.83;;
34988;SDS011;21192;40.182;44.516;2023-02-27T05:40:43;64.65;;;38.85;;
34988;SDS011;21192;40.182;44.516;2023-02-27T05:43:32;60.58;;;37.35;;
34988;SDS011;21192;40.182;44.516;2023-02-27T05:46:05;73.95;;;43.58;;
34988;SDS011;21192;40.182;44.516;2023-02-27T05:48:41;68.72;;;44.35;;
34988;SDS011;21192;40.182;44.516;2023-02-27T05:51:16;79.75;;;48.22;;
34988;SDS011;21192;40.182;44.516;2023-02-27T05:53:47;92.88;;;50.92;;
34988;SDS011;21192;40.182;44.516;2023-02-27T05:56:18;93.85;;;50.83;;
34988;SDS011;21192;40.182;44.516;2023-02-27T05:58:53;88.50;;;51.08;;
34988;SDS011;21192;40.182;44.516;2023-02-27T06:01:23;89.95;;;51.30;;
34988;SDS011;21192;40.182;44.516;2023-02-27T06:03:49;88.18;;;52.72;;
34988;SDS011;21192;40.182;44.516;2023-02-27T06:06:16;92.45;;;53.97;;
34988;SDS011;21192;40.182;44.516;2023-02-27T06:08:43;97.03;;;55.97;;
34988;SDS011;21192;40.182;44.516;2023-02-27T06:11:09;98.90;;;57.40;;
34988;SDS011;21192;40.182;44.516;2023-02-27T06:13:36;93.50;;;58.28;;
34988;SDS011;21192;40.182;44.516;2023-02-27T06:16:01;100.28;;;58.80;;
34988;SDS011;21192;40.182;44.516;2023-02-27T06:18:27;100.63;;;58.17;;
34988;SDS011;21192;40.182;44.516;2023-02-27T06:20:53;108.32;;;58.15;;
34988;SDS011;21192;40.182;44.516;2023-02-27T06:23:19;112.60;;;59.80;;
34988;SDS011;21192;40.182;44.516;2023-02-27T06:25:45;111.05;;;59.65;;
34988;SDS011;21192;40.182;44.516;2023-02-27T06:28:12;99.18;;;62.47;;
34988;SDS011;21192;40.182;44.516;2023-02-27T06:30:38;102.43;;;60.80;;
34988;SDS011;21192;40.182;44.516;2023-02-27T06:33:04;105.32;;;58.90;;
34988;SDS011;21192;40.182;44.516;2023-02-27T06:35:30;103.20;;;57.67;;
34988;SDS011;21192;40.182;44.516;2023-02-27T06:37:56;117.13;;;60.38;;
34988;SDS011;21192;40.182;44.516;2023-02-27T06:40:22;94.93;;;57.08;;
34988;SDS011;21192;40.182;44.516;2023-02-27T06:42:48;99.18;;;58.17;;
34988;SDS011;21192;40.182;44.516;2023-02-27T06:45:16;97.57;;;59.22;;
34988;SDS011;21192;40.182;44.516;2023-02-27T06:47:42;96.88;;;57.03;;
34988;SDS011;21192;40.182;44.516;2023-02-27T06:50:10;95.43;;;57.10;;
34988;SDS011;21192;40.182;44.516;2023-02-27T06:52:38;98.47;;;55.33;;
34988;SDS011;21192;40.182;44.516;2023-02-27T06:55:04;101.95;;;57.88;;
34988;SDS011;21192;40.182;44.516;2023-02-27T06:57:32;93.88;;;57.63;;
34988;SDS011;21192;40.182;44.516;2023-02-27T06:59:58;93.75;;;55.95;;
34988;SDS011;21192;40.182;44.516;2023-02-27T07:02:23;95.88;;;59.08;;
34988;SDS011;21192;40.182;44.516;2023-02-27T07:04:50;98.93;;;60.75;;
34988;SDS011;21192;40.182;44.516;2023-02-27T07:07:16;104.25;;;63.08;;
34988;SDS011;21192;40.182;44.516;2023-02-27T07:09:42;104.40;;;63.85;;
34988;SDS011;21192;40.182;44.516;2023-02-27T07:12:08;120.50;;;70.07;;
34988;SDS011;21192;40.182;44.516;2023-02-27T07:14:34;117.93;;;68.97;;
34988;SDS011;21192;40.182;44.516;2023-02-27T07:17:00;116.43;;;69.63;;
34988;SDS011;21192;40.182;44.516;2023-02-27T07:19:30;124.90;;;75.40;;
34988;SDS011;21192;40.182;44.516;2023-02-27T07:21:57;120.43;;;73.28;;
34988;SDS011;21192;40.182;44.516;2023-02-27T07:24:24;140.85;;;76.82;;
34988;SDS011;21192;40.182;44.516;2023-02-27T07:26:50;118.88;;;72.28;;
34988;SDS011;21192;40.182;44.516;2023-02-27T07:29:16;124.75;;;71.38;;
34988;SDS011;21192;40.182;44.516;2023-02-27T07:31:42;176.95;;;65.63;;
34988;SDS011;21192;40.182;44.516;2023-02-27T07:34:08;107.43;;;61.50;;
34988;SDS011;21192;40.182;44.516;2023-02-27T07:36:36;97.18;;;61.15;;
34988;SDS011;21192;40.182;44.516;2023-02-27T07:39:03;142.60;;;69.63;;
34988;SDS011;21192;40.182;44.516;2023-02-27T07:41:29;127.10;;;67.90;;
34988;SDS011;21192;40.182;44.516;2023-02-27T07:43:55;123.80;;;67.00;;
34988;SDS011;21192;40.182;44.516;2023-02-27T07:46:21;125.78;;;67.68;;
34988;SDS011;21192;40.182;44.516;2023-02-27T07:48:48;127.57;;;66.32;;
34988;SDS011;21192;40.182;44.516;2023-02-27T07:51:14;107.55;;;64.10;;
34988;SDS011;21192;40.182;44.516;2023-02-27T07:53:40;115.35;;;66.43;;
34988;SDS011;21192;40.182;44.516;2023-02-27T07:56:06;130.02;;;64.70;;
34988;SDS011;21192;40.182;44.516;2023-02-27T07:58:32;117.03;;;64.18;;
34988;SDS011;21192;40.182;44.516;2023-02-27T08:00:57;111.53;;;64.22;;
34988;SDS011;21192;40.182;44.516;2023-02-27T08:03:23;120.60;;;67.60;;
34988;SDS011;21192;40.182;44.516;2023-02-27T08:05:49;122.97;;;69.63;;
34988;SDS011;21192;40.182;44.516;2023-02-27T08:08:15;137.45;;;73.57;;
34988;SDS011;21192;40.182;44.516;2023-02-27T08:10:41;129.30;;;72.65;;
34988;SDS011;21192;40.182;44.516;2023-02-27T08:13:06;134.68;;;71.80;;
34988;SDS011;21192;40.182;44.516;2023-02-27T08:15:32;117.80;;;66.25;;
34988;SDS011;21192;40.182;44.516;2023-02-27T08:17:58;99.40;;;63.17;;
34988;SDS011;21192;40.182;44.516;2023-02-27T08:20:24;111.72;;;65.63;;
34988;SDS011;21192;40.182;44.516;2023-02-27T08:22:50;105.57;;;65.43;;
34988;SDS011;21192;40.182;44.516;2023-02-27T08:25:16;107.75;;;66.25;;
34988;SDS011;21192;40.182;44.516;2023-02-27T08:27:42;109.40;;;64.35;;
34988;SDS011;21192;40.182;44.516;2023-02-27T08:30:09;126.38;;;74.25;;
34988;SDS011;21192;40.182;44.516;2023-02-27T08:32:38;118.15;;;66.72;;
34988;SDS011;21192;40.182;44.516;2023-02-27T08:35:04;100.38;;;64.65;;
34988;SDS011;21192;40.182;44.516;2023-02-27T08:37:30;101.30;;;63.97;;
34988;SDS011;21192;40.182;44.516;2023-02-27T08:39:56;103.90;;;63.80;;
34988;SDS011;21192;40.182;44.516;2023-02-27T08:42:22;112.57;;;67.35;;
34988;SDS011;21192;40.182;44.516;2023-02-27T08:44:48;108.88;;;65.97;;
34988;SDS011;21192;40.182;44.516;2023-02-27T08:47:16;108.22;;;63.58;;
34988;SDS011;21192;40.182;44.516;2023-02-27T08:49:42;114.20;;;64.57;;
34988;SDS011;21192;40.182;44.516;2023-02-27T08:52:08;106.53;;;61.72;;
34988;SDS011;21192;40.182;44.516;2023-02-27T08:54:34;111.22;;;62.55;;
34988;SDS011;21192;40.182;44.516;2023-02-27T08:57:03;119.47;;;61.58;;
34988;SDS011;21192;40.182;44.516;2023-02-27T08:59:30;94.00;;;58.95;;
34988;SDS011;21192;40.182;44.516;2023-02-27T09:01:56;104.20;;;58.70;;
34988;SDS011;21192;40.182;44.516;2023-02-27T09:04:22;90.47;;;55.00;;
34988;SDS011;21192;40.182;44.516;2023-02-27T09:06:48;85.15;;;55.58;;
34988;SDS011;21192;40.182;44.516;2023-02-27T09:09:13;93.35;;;55.42;;
34988;SDS011;21192;40.182;44.516;2023-02-27T09:11:39;90.93;;;56.25;;
34988;SDS011;21192;40.182;44.516;2023-02-27T09:14:06;87.18;;;54.22;;
34988;SDS011;21192;40.182;44.516;2023-02-27T09:16:32;100.30;;;54.28;;
34988;SDS011;21192;40.182;44.516;2023-02-27T09:18:58;94.60;;;55.17;;
34988;SDS011;21192;40.182;44.516;2023-02-27T09:21:24;88.97;;;53.03;;
34988;SDS011;21192;40.182;44.516;2023-02-27T09:23:51;104.95;;;53.78;;
34988;SDS011;21192;40.182;44.516;2023-02-27T09:26:17;84.15;;;51.97;;
34988;SDS011;21192;40.182;44.516;2023-02-27T09:28:43;92.55;;;51.85;;
34988;SDS011;21192;40.182;44.516;2023-02-27T09:31:08;80.18;;;51.17;;
34988;SDS011;21192;40.182;44.516;2023-02-27T09:33:36;82.22;;;48.65;;
34988;SDS011;21192;40.182;44.516;2023-02-27T09:36:03;76.05;;;48.20;;
34988;SDS011;21192;40.182;44.516;2023-02-27T09:38:30;83.07;;;48.25;;
34988;SDS011;21192;40.182;44.516;2023-02-27T09:40:57;80.18;;;47.80;;
34988;SDS011;21192;40.182;44.516;2023-02-27T09:43:36;74.40;;;47.50;;
34988;SDS011;21192;40.182;44.516;2023-02-27T09:46:09;72.03;;;47.40;;
34988;SDS011;21192;40.182;44.516;2023-02-27T09:48:58;73.05;;;45.60;;
34988;SDS011;21192;40.182;44.516;2023-02-27T09:51:26;75.90;;;46.35;;
34988;SDS011;21192;40.182;44.516;2023-02-27T09:53:56;73.72;;;45.63;;
34988;SDS011;21192;40.182;44.516;2023-02-27T09:59:33;64.30;;;42.05;;
34988;SDS011;21192;40.182;44.516;2023-02-27T10:02:17;68.72;;;43.10;;
34988;SDS011;21192;40.182;44.516;2023-02-27T10:05:01;72.80;;;43.85;;
34988;SDS011;21192;40.182;44.516;2023-02-27T10:10:20;71.15;;;43.58;;
34988;SDS011;21192;40.182;44.516;2023-02-27T10:13:10;70.45;;;46.08;;
34988;SDS011;21192;40.182;44.516;2023-02-27T10:15:50;77.15;;;50.65;;
34988;SDS011;21192;40.182;44.516;2023-02-27T10:20:56;81.22;;;46.50;;
34988;SDS011;21192;40.182;44.516;2023-02-27T10:23:46;62.08;;;42.65;;
34988;SDS011;21192;40.182;44.516;2023-02-27T10:26:35;69.30;;;42.78;;
34988;SDS011;21192;40.182;44.516;2023-02-27T10:29:15;73.07;;;42.33;;
34988;SDS011;21192;40.182;44.516;2023-02-27T10:34:33;69.18;;;43.40;;
34988;SDS011;21192;40.182;44.516;2023-02-27T10:37:02;72.00;;;44.90;;
34988;SDS011;21192;40.182;44.516;2023-02-27T10:39:31;69.60;;;45.03;;
34988;SDS011;21192;40.182;44.516;2023-02-27T10:42:25;78.75;;;51.00;;
34988;SDS011;21192;40.182;44.516;2023-02-27T10:44:55;64.40;;;41.13;;
34988;SDS011;21192;40.182;44.516;2023-02-27T10:47:22;69.38;;;42.83;;
34988;SDS011;21192;40.182;44.516;2023-02-27T10:49:50;65.22;;;40.28;;
34988;SDS011;21192;40.182;44.516;2023-02-27T10:52:17;61.38;;;40.13;;
34988;SDS011;21192;40.182;44.516;2023-02-27T10:54:44;65.63;;;39.83;;
34988;SDS011;21192;40.182;44.516;2023-02-27T10:57:22;58.75;;;40.35;;
34988;SDS011;21192;40.182;44.516;2023-02-27T10:59:56;66.15;;;41.78;;
34988;SDS011;21192;40.182;44.516;2023-02-27T11:02:39;58.30;;;38.55;;
34988;SDS011;21192;40.182;44.516;2023-02-27T11:07:48;57.47;;;38.28;;
34988;SDS011;21192;40.182;44.516;2023-02-27T11:10:16;62.97;;;39.75;;
34988;SDS011;21192;40.182;44.516;2023-02-27T11:15:27;54.38;;;36.53;;
34988;SDS011;21192;40.182;44.516;2023-02-27T11:18:03;63.67;;;36.85;;
34988;SDS011;21192;40.182;44.516;2023-02-27T11:20:51;56.10;;;36.55;;
34988;SDS011;21192;40.182;44.516;2023-02-27T11:23:22;60.28;;;37.00;;
34988;SDS011;21192;40.182;44.516;2023-02-27T11:25:49;67.80;;;36.78;;
34988;SDS011;21192;40.182;44.516;2023-02-27T11:28:25;62.70;;;37.42;;
34988;SDS011;21192;40.182;44.516;2023-02-27T11:31:04;60.72;;;36.28;;
34988;SDS011;21192;40.182;44.516;2023-02-27T11:33:39;61.40;;;37.75;;
34988;SDS011;21192;40.182;44.516;2023-02-27T11:36:17;64.85;;;37.55;;
34988;SDS011;21192;40.182;44.516;2023-02-27T11:38:49;64.15;;;38.30;;
34988;SDS011;21192;40.182;44.516;2023-02-27T11:41:20;58.45;;;37.10;;
34988;SDS011;21192;40.182;44.516;2023-02-27T11:43:56;63.22;;;36.88;;
34988;SDS011;21192;40.182;44.516;2023-02-27T11:46:24;62.13;;;37.30;;
34988;SDS011;21192;40.182;44.516;2023-02-27T11:51:32;51.92;;;33.55;;
34988;SDS011;21192;40.182;44.516;2023-02-27T11:56:53;67.47;;;35.80;;
34988;SDS011;21192;40.182;44.516;2023-02-27T11:59:41;57.25;;;33.30;;
34988;SDS011;21192;40.182;44.516;2023-02-27T12:05:25;53.63;;;34.67;;
34988;SDS011;21192;40.182;44.516;2023-02-27T12:08:19;49.30;;;32.90;;
34988;SDS011;21192;40.182;44.516;2023-02-27T12:10:59;53.92;;;32.72;;
34988;SDS011;21192;40.182;44.516;2023-02-27T12:13:32;50.20;;;33.25;;
34988;SDS011;21192;40.182;44.516;2023-02-27T12:16:15;53.33;;;33.83;;
34988;SDS011;21192;40.182;44.516;2023-02-27T12:18:55;70.50;;;38.45;;
34988;SDS011;21192;40.182;44.516;2023-02-27T12:21:27;62.45;;;38.78;;
34988;SDS011;21192;40.182;44.516;2023-02-27T12:24:16;50.70;;;33.33;;
34988;SDS011;21192;40.182;44.516;2023-02-27T12:29:35;60.03;;;35.72;;
34988;SDS011;21192;40.182;44.516;2023-02-27T12:34:46;67.53;;;34.92;;
34988;SDS011;21192;40.182;44.516;2023-02-27T12:37:28;54.40;;;30.88;;
34988;SDS011;21192;40.182;44.516;2023-02-27T12:39:58;64.18;;;33.45;;
34988;SDS011;21192;40.182;44.516;2023-02-27T12:45:18;52.60;;;30.65;;
34988;SDS011;21192;40.182;44.516;2023-02-27T12:53:26;52.05;;;29.83;;
34988;SDS011;21192;40.182;44.516;2023-02-27T12:56:15;46.65;;;28.25;;
34988;SDS011;21192;40.182;44.516;2023-02-27T12:59:05;50.88;;;31.02;;
34988;SDS011;21192;40.182;44.516;2023-02-27T13:02:35;61.83;;;30.85;;
34988;SDS011;21192;40.182;44.516;2023-02-27T13:04:47;56.13;;;30.00;;
34988;SDS011;21192;40.182;44.516;2023-02-27T13:07:43;45.00;;;29.40;;
34988;SDS011;21192;40.182;44.516;2023-02-27T13:10:23;48.90;;;29.70;;
34988;SDS011;21192;40.182;44.516;2023-02-27T13:13:07;49.70;;;29.50;;
34988;SDS011;21192;40.182;44.516;2023-02-27T13:16:03;50.00;;;30.30;;
34988;SDS011;21192;40.182;44.516;2023-02-27T13:18:40;52.85;;;30.55;;
34988;SDS011;21192;40.182;44.516;2023-02-27T13:29:22;57.75;;;33.15;;
34988;SDS011;21192;40.182;44.516;2023-02-27T13:35:06;67.05;;;39.08;;
34988;SDS011;21192;40.182;44.516;2023-02-27T13:37:50;74.55;;;41.70;;
34988;SDS011;21192;40.182;44.516;2023-02-27T13:40:26;94.57;;;42.45;;
34988;SDS011;21192;40.182;44.516;2023-02-27T13:42:58;92.00;;;46.63;;
34988;SDS011;21192;40.182;44.516;2023-02-27T13:51:08;77.65;;;41.58;;
34988;SDS011;21192;40.182;44.516;2023-02-27T14:02:04;64.38;;;35.85;;
34988;SDS011;21192;40.182;44.516;2023-02-27T14:04:35;70.60;;;35.55;;
34988;SDS011;21192;40.182;44.516;2023-02-27T14:07:14;73.57;;;36.15;;
34988;SDS011;21192;40.182;44.516;2023-02-27T14:09:45;70.97;;;36.65;;
34988;SDS011;21192;40.182;44.516;2023-02-27T14:12:31;62.05;;;34.78;;
34988;SDS011;21192;40.182;44.516;2023-02-27T14:14:57;60.13;;;35.33;;
34988;SDS011;21192;40.182;44.516;2023-02-27T14:20:00;59.25;;;35.10;;
34988;SDS011;21192;40.182;44.516;2023-02-27T14:28:36;53.42;;;34.53;;
34988;SDS011;21192;40.182;44.516;2023-02-27T14:31:29;66.07;;;37.20;;
34988;SDS011;21192;40.182;44.516;2023-02-27T14:33:56;66.05;;;37.58;;
34988;SDS011;21192;40.182;44.516;2023-02-27T14:36:33;60.88;;;38.88;;
34988;SDS011;21192;40.182;44.516;2023-02-27T14:39:06;72.82;;;41.92;;
34988;SDS011;21192;40.182;44.516;2023-02-27T14:44:26;73.70;;;44.65;;
34988;SDS011;21192;40.182;44.516;2023-02-27T14:46:54;64.28;;;41.60;;
34988;SDS011;21192;40.182;44.516;2023-02-27T14:51:55;64.40;;;40.03;;
34988;SDS011;21192;40.182;44.516;2023-02-27T14:54:25;71.60;;;41.92;;
34988;SDS011;21192;40.182;44.516;2023-02-27T14:56:55;65.30;;;41.45;;
34988;SDS011;21192;40.182;44.516;2023-02-27T14:59:22;76.97;;;44.55;;
34988;SDS011;21192;40.182;44.516;2023-02-27T15:01:50;72.90;;;42.95;;
34988;SDS011;21192;40.182;44.516;2023-02-27T15:04:19;74.68;;;44.75;;
34988;SDS011;21192;40.182;44.516;2023-02-27T15:06:49;86.97;;;51.17;;
34988;SDS011;21192;40.182;44.516;2023-02-27T15:09:38;79.82;;;47.42;;
34988;SDS011;21192;40.182;44.516;2023-02-27T15:12:15;96.28;;;52.80;;
34988;SDS011;21192;40.182;44.516;2023-02-27T15:14:48;88.20;;;50.72;;
34988;SDS011;21192;40.182;44.516;2023-02-27T15:17:18;87.45;;;47.17;;
34988;SDS011;21192;40.182;44.516;2023-02-27T15:19:53;78.18;;;47.58;;
34988;SDS011;21192;40.182;44.516;2023-02-27T15:22:21;82.03;;;47.83;;
34988;SDS011;21192;40.182;44.516;2023-02-27T15:24:59;79.75;;;46.33;;
34988;SDS011;21192;40.182;44.516;2023-02-27T15:27:27;76.10;;;47.95;;
34988;SDS011;21192;40.182;44.516;2023-02-27T15:29:57;79.45;;;46.53;;
34988;SDS011;21192;40.182;44.516;2023-02-27T15:34:59;88.57;;;50.75;;
34988;SDS011;21192;40.182;44.516;2023-02-27T15:37:29;92.05;;;51.00;;
34988;SDS011;21192;40.182;44.516;2023-02-27T15:39:58;83.05;;;49.58;;
34988;SDS011;21192;40.182;44.516;2023-02-27T15:42:26;83.90;;;49.80;;
34988;SDS011;21192;40.182;44.516;2023-02-27T15:44:59;84.80;;;47.20;;
34988;SDS011;21192;40.182;44.516;2023-02-27T15:47:26;73.38;;;47.70;;
34988;SDS011;21192;40.182;44.516;2023-02-27T15:55:15;81.40;;;49.90;;
34988;SDS011;21192;40.182;44.516;2023-02-27T15:57:52;82.82;;;50.67;;
34988;SDS011;21192;40.182;44.516;2023-02-27T16:00:18;94.78;;;52.33;;
34988;SDS011;21192;40.182;44.516;2023-02-27T16:02:49;83.38;;;49.40;;
34988;SDS011;21192;40.182;44.516;2023-02-27T16:05:20;94.75;;;49.33;;
34988;SDS011;21192;40.182;44.516;2023-02-27T16:08:05;78.53;;;47.60;;
34988;SDS011;21192;40.182;44.516;2023-02-27T16:10:50;82.13;;;48.25;;
34988;SDS011;21192;40.182;44.516;2023-02-27T16:15:56;76.00;;;47.67;;
34988;SDS011;21192;40.182;44.516;2023-02-27T16:18:33;74.45;;;46.50;;
34988;SDS011;21192;40.182;44.516;2023-02-27T16:21:11;74.00;;;43.25;;
34988;SDS011;21192;40.182;44.516;2023-02-27T16:23:42;77.70;;;45.95;;
34988;SDS011;21192;40.182;44.516;2023-02-27T16:29:12;78.78;;;44.67;;
34988;SDS011;21192;40.182;44.516;2023-02-27T16:31:46;86.53;;;45.17;;
34988;SDS011;21192;40.182;44.516;2023-02-27T16:37:00;83.32;;;48.65;;
34988;SDS011;21192;40.182;44.516;2023-02-27T16:39:28;79.07;;;44.97;;
34988;SDS011;21192;40.182;44.516;2023-02-27T16:41:55;73.80;;;44.67;;
34988;SDS011;21192;40.182;44.516;2023-02-27T16:44:22;75.95;;;45.47;;
34988;SDS011;21192;40.182;44.516;2023-02-27T16:46:49;76.50;;;45.85;;
34988;SDS011;21192;40.182;44.516;2023-02-27T16:49:20;79.72;;;46.20;;
34988;SDS011;21192;40.182;44.516;2023-02-27T16:51:51;75.30;;;44.40;;
34988;SDS011;21192;40.182;44.516;2023-02-27T16:54:17;87.38;;;48.80;;
34988;SDS011;21192;40.182;44.516;2023-02-27T16:56:44;81.13;;;45.55;;
34988;SDS011;21192;40.182;44.516;2023-02-27T16:59:53;85.00;;;49.40;;
34988;SDS011;21192;40.182;44.516;2023-02-27T17:02:05;74.10;;;43.28;;
34988;SDS011;21192;40.182;44.516;2023-02-27T17:04:35;80.63;;;45.85;;
34988;SDS011;21192;40.182;44.516;2023-02-27T17:07:01;80.18;;;45.83;;
34988;SDS011;21192;40.182;44.516;2023-02-27T17:09:27;69.20;;;44.17;;
34988;SDS011;21192;40.182;44.516;2023-02-27T17:11:54;72.07;;;44.65;;